createdAt,value
2023-03-27T00:00:30.506Z,98534.97
2023-03-27T00:01:57.375Z,98543.03
2023-03-27T00:03:21.039Z,98549.41
2023-03-27T00:04:44.799Z,98564.44
2023-03-27T00:06:12.070Z,98565.69
2023-03-27T00:07:36.427Z,98550.59
2023-03-27T00:08:57.547Z,98528.75
2023-03-27T00:10:26.622Z,98511.66
2023-03-27T00:11:51.752Z,98554.31
2023-03-27T00:13:14.673Z,98522.34
2023-03-27T00:14:38.936Z,98519.66
2023-03-27T00:16:05.407Z,98521.53
2023-03-27T00:17:26.842Z,98521.13
2023-03-27T00:18:49.408Z,98553.28
2023-03-27T00:20:13.826Z,98528.34
2023-03-27T00:21:36.275Z,98519.88
2023-03-27T00:22:58.783Z,98521.53
2023-03-27T00:24:21.339Z,98507.94
2023-03-27T00:25:42.620Z,98535.09
2023-03-27T00:27:05.163Z,98509.34
2023-03-27T00:28:28.832Z,98520.28
2023-03-27T00:29:54.099Z,98498.41
2023-03-27T00:31:17.336Z,98484.63
2023-03-27T00:32:40.494Z,98526.03
2023-03-27T00:34:06.146Z,98506.25
2023-03-27T00:35:35.977Z,98507.91
2023-03-27T00:37:00.721Z,98528.72
2023-03-27T00:38:24.920Z,98520.69
2023-03-27T00:39:50.618Z,98499.69
2023-03-27T00:41:13.123Z,98525.25
2023-03-27T00:42:35.216Z,98522.75
2023-03-27T00:43:59.129Z,98535.56
2023-03-27T00:45:23.141Z,98525.69
2023-03-27T00:46:47.083Z,98523.63
2023-03-27T00:48:22.311Z,98493.09
2023-03-27T00:50:00.845Z,98519.88
2023-03-27T00:52:02.726Z,98517.88
2023-03-27T00:53:29.481Z,98514.38
2023-03-27T00:54:51.127Z,98521.13
2023-03-27T00:56:15.876Z,98528.56
2023-03-27T00:57:54.538Z,98510.44
2023-03-27T00:59:20.808Z,98523.19
2023-03-27T01:00:41.817Z,98505.47
2023-03-27T01:02:06.293Z,98505.47
2023-03-27T01:03:33.937Z,98526.94
2023-03-27T01:04:57.867Z,98487.13
2023-03-27T01:06:21.614Z,98503.81
2023-03-27T01:08:00.647Z,98496.63
2023-03-27T01:09:27.290Z,98524.88
2023-03-27T01:11:00.584Z,98523.00
2023-03-27T01:12:35.040Z,98521.13
2023-03-27T01:14:10.683Z,98518.06
2023-03-27T01:15:38.044Z,98491.44
2023-03-27T01:17:18.619Z,98503.00
2023-03-27T01:18:54.124Z,98500.94
2023-03-27T01:20:52.244Z,98522.00
2023-03-27T01:22:39.611Z,98481.59
2023-03-27T01:24:42.768Z,98515.41
2023-03-27T01:26:35.825Z,98515.78
2023-03-27T01:28:32.208Z,98502.38
2023-03-27T01:30:15.686Z,98486.34
2023-03-27T01:31:56.722Z,98490.44
2023-03-27T01:34:12.552Z,98483.22
2023-03-27T01:36:16.769Z,98512.09
2023-03-27T01:37:54.415Z,98510.25
2023-03-27T01:39:49.069Z,98506.31
2023-03-27T01:41:16.757Z,98470.03
2023-03-27T01:42:48.501Z,98495.19
2023-03-27T01:44:18.578Z,98507.56
2023-03-27T01:45:46.466Z,98501.38
2023-03-27T01:47:15.724Z,98499.31
2023-03-27T01:48:46.206Z,98493.34
2023-03-27T01:50:14.757Z,98486.94
2023-03-27T01:51:40.186Z,98500.13
2023-03-27T01:53:08.873Z,98516.41
2023-03-27T01:54:35.895Z,98498.06
2023-03-27T01:56:08.564Z,98508.56
2023-03-27T01:57:38.483Z,98483.22
2023-03-27T01:59:16.587Z,98509.19
2023-03-27T02:00:52.501Z,98480.34
2023-03-27T02:02:22.291Z,98520.75
2023-03-27T02:03:48.015Z,98519.09
2023-03-27T02:05:15.525Z,98489.59
2023-03-27T02:06:42.691Z,98486.31
2023-03-27T02:08:10.017Z,98482.41
2023-03-27T02:09:35.926Z,98491.69
2023-03-27T02:11:01.636Z,98508.38
2023-03-27T02:12:30.332Z,98476.44
2023-03-27T02:13:55.148Z,98466.34
2023-03-27T02:15:23.769Z,98487.97
2023-03-27T02:16:54.451Z,98479.13
2023-03-27T02:18:22.184Z,98476.66
2023-03-27T02:19:47.797Z,98476.22
2023-03-27T02:21:14.309Z,98480.38
2023-03-27T02:22:40.253Z,98513.56
2023-03-27T02:24:08.192Z,98470.72
2023-03-27T02:25:39.072Z,98488.63
2023-03-27T02:27:15.811Z,98500.81
2023-03-27T02:28:53.313Z,98476.50
2023-03-27T02:30:19.439Z,98484.75
2023-03-27T02:32:09.473Z,98526.41
2023-03-27T02:33:46.030Z,98540.25
2023-03-27T02:35:38.384Z,98527.66
2023-03-27T02:37:05.299Z,98508.28
2023-03-27T02:39:09.401Z,98544.78
2023-03-27T02:40:41.745Z,98527.47
2023-03-27T02:42:40.538Z,98518.81
2023-03-27T02:44:11.698Z,98528.09
2023-03-27T02:45:56.780Z,98522.31
2023-03-27T02:47:27.074Z,98528.91
2023-03-27T02:48:52.494Z,98520.47
2023-03-27T02:50:23.693Z,98498.38
2023-03-27T02:51:52.014Z,98510.97
2023-03-27T02:53:20.332Z,98544.19
2023-03-27T02:54:46.944Z,98553.25
2023-03-27T02:56:12.194Z,98560.47
2023-03-27T02:57:40.377Z,98557.16
2023-03-27T02:59:35.626Z,98562.31
2023-03-27T03:01:00.836Z,98567.69
2023-03-27T03:02:35.202Z,98570.38
2023-03-27T03:04:00.844Z,98569.97
2023-03-27T03:05:48.372Z,98573.66
2023-03-27T03:07:10.252Z,98572.22
2023-03-27T03:08:38.444Z,98538.19
2023-03-27T03:10:01.940Z,98551.38
2023-03-27T03:15:56.070Z,98544.72
2023-03-27T03:23:14.650Z,98570.03
2023-03-27T03:29:55.612Z,98600.28
2023-03-27T03:40:34.270Z,98645.63
2023-03-27T03:42:52.229Z,98651.13
2023-03-27T03:57:11.268Z,98654.16
2023-03-27T03:58:34.562Z,98638.63
2023-03-27T04:00:01.365Z,98655.94
2023-03-27T04:01:41.197Z,98670.59
2023-03-27T04:03:04.879Z,98654.41
2023-03-27T04:04:33.453Z,98675.47
2023-03-27T04:06:05.837Z,98677.91
2023-03-27T04:07:31.629Z,98664.47
2023-03-27T04:09:13.035Z,98688.03
2023-03-27T04:10:56.128Z,98664.59
2023-03-27T04:12:40.939Z,98653.13
2023-03-27T04:14:11.145Z,98677.25
2023-03-27T04:15:38.446Z,98661.06
2023-03-27T04:17:14.418Z,98693.09
2023-03-27T04:18:41.491Z,98704.41
2023-03-27T04:20:14.237Z,98705.19
2023-03-27T04:21:39.960Z,98718.81
2023-03-27T04:23:02.817Z,98720.19
2023-03-27T04:24:36.165Z,98676.22
2023-03-27T04:26:19.852Z,98700.34
2023-03-27T04:28:23.879Z,98700.09
2023-03-27T04:29:59.037Z,98736.81
2023-03-27T04:31:28.070Z,98724.13
2023-03-27T04:33:30.673Z,98716.56
2023-03-27T04:35:20.268Z,98730.50
2023-03-27T04:36:54.329Z,98731.31
2023-03-27T04:38:26.460Z,98750.84
2023-03-27T04:39:51.434Z,98719.72
2023-03-27T04:41:15.643Z,98746.78
2023-03-27T04:42:45.277Z,98732.03
2023-03-27T04:44:14.207Z,98730.22
2023-03-27T04:45:39.988Z,98761.03
2023-03-27T04:47:02.625Z,98755.75
2023-03-27T04:48:25.296Z,98759.16
2023-03-27T04:49:52.383Z,98708.50
2023-03-27T04:51:17.550Z,98764.47
2023-03-27T04:52:40.223Z,98725.41
2023-03-27T04:54:06.225Z,98724.13
2023-03-27T04:55:38.181Z,98749.59
2023-03-27T04:57:04.031Z,98736.53
2023-03-27T04:58:28.555Z,98771.44
2023-03-27T04:59:53.918Z,98757.84
2023-03-27T05:01:36.089Z,98786.50
2023-03-27T05:03:03.984Z,98745.53
2023-03-27T05:04:39.445Z,98797.00
2023-03-27T05:06:12.252Z,98778.47
2023-03-27T05:07:36.355Z,98805.38
2023-03-27T05:09:01.194Z,98810.09
2023-03-27T05:10:27.797Z,98807.94
2023-03-27T05:11:52.681Z,98782.22
2023-03-27T05:13:15.648Z,98811.84
2023-03-27T05:14:37.083Z,98791.09
2023-03-27T05:16:10.340Z,98825.28
2023-03-27T05:17:41.004Z,98834.28
2023-03-27T05:19:05.023Z,98827.81
2023-03-27T05:20:35.448Z,98829.13
2023-03-27T05:22:03.522Z,98838.78
2023-03-27T05:23:26.205Z,98832.63
2023-03-27T05:24:47.937Z,98823.34
2023-03-27T05:26:10.517Z,98817.16
2023-03-27T05:27:50.807Z,98828.50
2023-03-27T05:29:14.202Z,98835.97
2023-03-27T05:30:39.867Z,98867.91
2023-03-27T05:32:15.858Z,98856.88
2023-03-27T05:33:45.075Z,98851.91
2023-03-27T05:35:09.080Z,98865.84
2023-03-27T05:36:37.162Z,98881.84
2023-03-27T05:38:02.409Z,98857.94
2023-03-27T05:39:29.006Z,98858.94
2023-03-27T05:40:52.452Z,98877.56
2023-03-27T05:42:15.812Z,98891.56
2023-03-27T05:43:40.975Z,98892.06
2023-03-27T05:45:03.305Z,98872.13
2023-03-27T05:46:24.978Z,98874.78
2023-03-27T05:47:58.096Z,98900.88
2023-03-27T05:49:21.824Z,98918.88
2023-03-27T05:50:49.985Z,98899.28
2023-03-27T05:52:16.254Z,98919.72
2023-03-27T05:53:39.612Z,98908.78
2023-03-27T05:55:15.568Z,98943.38
2023-03-27T05:56:42.730Z,98927.94
2023-03-27T05:58:06.296Z,98948.06
2023-03-27T05:59:28.941Z,98947.56
2023-03-27T06:01:04.923Z,98958.53
2023-03-27T06:02:27.915Z,98929.78
2023-03-27T06:03:58.235Z,98936.28
2023-03-27T06:05:24.710Z,98944.41
2023-03-27T06:06:47.296Z,98931.94
2023-03-27T06:08:11.835Z,98952.59
2023-03-27T06:09:35.453Z,98959.75
2023-03-27T06:11:16.806Z,98982.88
2023-03-27T06:12:41.921Z,98993.50
2023-03-27T06:14:18.614Z,98951.91
2023-03-27T06:16:08.678Z,99011.47
2023-03-27T06:17:41.014Z,98990.34
2023-03-27T06:19:05.168Z,98989.53
2023-03-27T06:20:27.661Z,99008.97
2023-03-27T06:21:50.518Z,98973.19
2023-03-27T06:23:13.151Z,98980.19
2023-03-27T06:24:41.071Z,98980.16
2023-03-27T06:26:05.994Z,98964.53
2023-03-27T06:27:28.483Z,99022.13
2023-03-27T06:28:51.390Z,99033.59
2023-03-27T06:30:18.253Z,99038.28
2023-03-27T06:31:58.042Z,99021.59
2023-03-27T06:33:35.393Z,99054.53
2023-03-27T06:35:04.061Z,99048.41
2023-03-27T06:36:47.141Z,99033.72
2023-03-27T06:38:09.791Z,99048.38
2023-03-27T06:39:33.728Z,99048.53
2023-03-27T06:40:56.854Z,99038.72
2023-03-27T06:42:20.146Z,99017.75
2023-03-27T06:43:59.804Z,99023.91
2023-03-27T06:45:53.893Z,99015.25
2023-03-27T06:47:27.027Z,99070.22
2023-03-27T06:49:11.863Z,99075.53
2023-03-27T06:50:43.518Z,99055.88
2023-03-27T06:52:27.745Z,99076.72
2023-03-27T06:54:00.296Z,99074.88
2023-03-27T06:55:25.416Z,99061.88
2023-03-27T06:56:49.629Z,99087.69
2023-03-27T06:58:22.358Z,99081.53
2023-03-27T06:59:44.734Z,99085.53
2023-03-27T07:01:09.716Z,99093.22
2023-03-27T07:03:01.323Z,99087.75
2023-03-27T07:05:04.173Z,99087.75
2023-03-27T07:06:39.573Z,99091.56
2023-03-27T07:08:19.011Z,99088.06
2023-03-27T07:09:47.161Z,99091.72
2023-03-27T07:11:12.747Z,99098.56
2023-03-27T07:12:48.436Z,99104.56
2023-03-27T07:14:12.504Z,99105.22
2023-03-27T07:15:39.667Z,99106.69
2023-03-27T07:17:02.997Z,99113.34
2023-03-27T07:19:08.613Z,99087.19
2023-03-27T07:20:35.966Z,99082.44
2023-03-27T07:22:12.939Z,99093.31
2023-03-27T07:23:38.552Z,99113.03
2023-03-27T07:25:06.756Z,99115.59
2023-03-27T07:26:39.055Z,99109.03
2023-03-27T07:28:31.202Z,99121.38
2023-03-27T07:30:03.650Z,99101.84
2023-03-27T07:31:51.676Z,99110.56
2023-03-27T07:33:30.101Z,99087.13
2023-03-27T07:35:00.187Z,99116.41
2023-03-27T07:36:46.557Z,99092.97
2023-03-27T07:38:10.697Z,99108.28
2023-03-27T07:39:53.421Z,99129.72
2023-03-27T07:41:19.927Z,99121.97
2023-03-27T07:42:53.377Z,99143.78
2023-03-27T07:44:16.012Z,99134.97
2023-03-27T07:45:49.865Z,99151.34
2023-03-27T07:47:12.476Z,99146.91
2023-03-27T07:48:37.831Z,99146.78
2023-03-27T07:50:00.361Z,99127.94
2023-03-27T07:51:29.253Z,99146.28
2023-03-27T07:52:58.573Z,99113.91
2023-03-27T07:54:22.409Z,99160.63
2023-03-27T07:55:48.829Z,99152.50
2023-03-27T07:57:11.647Z,99161.50
2023-03-27T07:58:49.016Z,99157.84
2023-03-27T08:00:17.974Z,99159.13
2023-03-27T08:01:50.857Z,99165.06
2023-03-27T08:03:15.974Z,99172.47
2023-03-27T08:04:45.618Z,99165.66
2023-03-27T08:06:10.550Z,99164.25
2023-03-27T08:07:42.871Z,99178.09
2023-03-27T08:09:08.810Z,99170.03
2023-03-27T08:10:39.427Z,99179.78
2023-03-27T08:12:08.005Z,99185.53
2023-03-27T08:13:36.780Z,99171.97
2023-03-27T08:15:03.727Z,99184.44
2023-03-27T08:16:32.131Z,99176.97
2023-03-27T08:17:57.290Z,99183.81
2023-03-27T08:19:25.431Z,99192.88
2023-03-27T08:20:57.319Z,99184.56
2023-03-27T08:22:21.223Z,99195.06
2023-03-27T08:24:07.655Z,99190.00
2023-03-27T08:25:30.062Z,99170.00
2023-03-27T08:26:55.331Z,99186.94
2023-03-27T08:28:18.462Z,99194.06
2023-03-27T08:29:42.372Z,99195.94
2023-03-27T08:31:11.529Z,99175.78
2023-03-27T08:32:34.000Z,99190.75
2023-03-27T08:34:00.723Z,99198.53
2023-03-27T08:35:29.275Z,99200.03
2023-03-27T08:36:52.650Z,99198.28
2023-03-27T08:38:26.082Z,99193.31
2023-03-27T08:40:14.082Z,99195.00
2023-03-27T08:41:41.832Z,99206.25
2023-03-27T08:43:16.216Z,99196.56
2023-03-27T08:44:38.941Z,99199.78
2023-03-27T08:46:37.931Z,99190.25
2023-03-27T08:51:03.869Z,99201.88
2023-03-27T08:52:32.394Z,99169.69
2023-03-27T08:54:08.443Z,99216.19
2023-03-27T08:55:40.436Z,99206.03
2023-03-27T08:57:22.089Z,99211.13
2023-03-27T08:58:48.673Z,99226.31
2023-03-27T09:00:25.248Z,99212.59
2023-03-27T09:02:09.634Z,99214.16
2023-03-27T09:03:37.240Z,99213.44
2023-03-27T09:05:04.075Z,99221.94
2023-03-27T09:06:29.055Z,99231.00
2023-03-27T09:08:05.320Z,99234.47
2023-03-27T09:09:46.503Z,99236.38
2023-03-27T09:11:22.382Z,99243.88
2023-03-27T09:13:05.167Z,99244.78
2023-03-27T09:14:37.315Z,99242.28
2023-03-27T09:16:03.504Z,99241.00
2023-03-27T09:17:32.013Z,99250.06
2023-03-27T09:19:07.953Z,99239.53
2023-03-27T09:20:34.948Z,99252.63
2023-03-27T09:22:01.300Z,99245.50
2023-03-27T09:23:44.808Z,99237.28
2023-03-27T09:25:40.417Z,99255.84
2023-03-27T09:27:18.895Z,99251.69
2023-03-27T09:28:56.732Z,99256.91
2023-03-27T09:30:31.405Z,99250.59
2023-03-27T09:32:14.833Z,99244.91
2023-03-27T09:33:41.525Z,99257.88
2023-03-27T09:35:05.034Z,99272.09
2023-03-27T09:36:27.435Z,99272.25
2023-03-27T09:37:58.652Z,99270.59
2023-03-27T09:39:27.639Z,99258.72
2023-03-27T09:41:07.023Z,99292.47
2023-03-27T09:42:37.959Z,99292.97
2023-03-27T09:44:06.317Z,99291.28
2023-03-27T09:45:35.181Z,99295.50
2023-03-27T09:47:06.335Z,99301.00
2023-03-27T09:48:37.081Z,99287.34
2023-03-27T09:50:26.245Z,99292.44
2023-03-27T09:52:04.013Z,99278.53
2023-03-27T09:54:00.209Z,99294.94
2023-03-27T09:55:27.505Z,99308.81
2023-03-27T09:56:53.369Z,99304.28
2023-03-27T09:58:26.072Z,99302.00
2023-03-27T09:59:58.653Z,99306.69
2023-03-27T10:01:38.138Z,99272.94
2023-03-27T10:03:24.389Z,99303.34
2023-03-27T10:05:05.639Z,99276.84
2023-03-27T10:06:33.338Z,99319.06
2023-03-27T10:08:31.370Z,99279.63
2023-03-27T10:13:03.630Z,99295.31
2023-03-27T10:14:36.762Z,99307.09
2023-03-27T10:16:01.602Z,99334.16
2023-03-27T10:17:39.406Z,99350.91
2023-03-27T10:19:06.753Z,99341.19
2023-03-27T10:20:41.725Z,99349.59
2023-03-27T10:22:20.159Z,99330.06
2023-03-27T10:23:46.472Z,99342.19
2023-03-27T10:25:20.657Z,99343.69
2023-03-27T10:26:52.453Z,99353.94
2023-03-27T10:28:20.043Z,99348.22
2023-03-27T10:30:28.987Z,99352.66
2023-03-27T10:32:05.972Z,99354.41
2023-03-27T10:33:56.852Z,99366.50
2023-03-27T10:35:45.385Z,99366.13
2023-03-27T10:37:28.176Z,99355.06
2023-03-27T10:39:15.254Z,99368.47
2023-03-27T10:40:52.249Z,99380.09
2023-03-27T10:42:28.834Z,99366.13
2023-03-27T10:43:50.957Z,99363.84
2023-03-27T10:45:18.363Z,99365.31
2023-03-27T10:46:42.252Z,99367.81
2023-03-27T10:48:11.335Z,99377.06
2023-03-27T10:49:45.056Z,99372.16
2023-03-27T10:51:36.155Z,99380.28
2023-03-27T10:53:18.625Z,99379.38
2023-03-27T10:55:06.940Z,99380.94
2023-03-27T10:56:37.302Z,99384.72
2023-03-27T10:58:06.834Z,99381.88
2023-03-27T10:59:41.785Z,99389.81
2023-03-27T11:01:19.418Z,99382.16
2023-03-27T11:02:50.405Z,99384.91
2023-03-27T11:04:20.855Z,99394.63
2023-03-27T11:05:53.822Z,99388.16
2023-03-27T11:07:41.609Z,99379.47
2023-03-27T11:09:10.598Z,99385.69
2023-03-27T11:10:44.483Z,99379.56
2023-03-27T11:12:14.594Z,99397.22
2023-03-27T11:13:50.519Z,99350.78
2023-03-27T11:15:17.647Z,99391.69
2023-03-27T11:16:44.597Z,99380.31
2023-03-27T11:18:29.898Z,99389.00
2023-03-27T11:20:07.526Z,99384.13
2023-03-27T11:22:15.337Z,99393.16
2023-03-27T11:23:47.400Z,99396.69
2023-03-27T11:25:29.391Z,99399.03
2023-03-27T11:27:01.499Z,99378.34
2023-03-27T11:28:32.769Z,99387.09
2023-03-27T11:30:08.695Z,99389.91
2023-03-27T11:31:48.722Z,99400.78
2023-03-27T11:33:54.707Z,99415.41
2023-03-27T11:35:27.950Z,99413.03
2023-03-27T11:37:36.519Z,99406.66
2023-03-27T11:39:08.417Z,99376.16
2023-03-27T11:40:56.755Z,99397.13
2023-03-27T11:42:25.032Z,99412.09
2023-03-27T11:43:48.246Z,99413.97
2023-03-27T11:45:46.955Z,99379.13
2023-03-27T11:47:20.612Z,99416.94
2023-03-27T11:49:00.035Z,99412.41
2023-03-27T11:50:37.564Z,99408.94
2023-03-27T11:52:20.099Z,99383.22
2023-03-27T11:54:22.299Z,99406.88
2023-03-27T11:56:49.174Z,99370.22
2023-03-27T11:58:30.879Z,99424.19
2023-03-27T12:00:12.301Z,99417.97
2023-03-27T12:01:52.538Z,99393.47
2023-03-27T12:03:53.875Z,99416.53
2023-03-27T12:05:41.260Z,99390.88
2023-03-27T12:07:36.212Z,99410.41
2023-03-27T12:09:29.391Z,99417.69
2023-03-27T12:11:20.930Z,99409.22
2023-03-27T12:13:13.446Z,99425.41
2023-03-27T12:15:09.554Z,99411.63
2023-03-27T12:17:14.468Z,99422.16
2023-03-27T12:19:10.818Z,99418.03
2023-03-27T12:21:23.827Z,99415.69
2023-03-27T12:23:05.194Z,99398.25
2023-03-27T12:25:21.260Z,99427.41
2023-03-27T12:27:55.278Z,99420.75
2023-03-27T12:32:20.983Z,99424.59
2023-03-27T12:45:51.096Z,99431.63
2023-03-27T12:48:53.922Z,99423.50
2023-03-27T12:56:58.915Z,99432.38
2023-03-27T12:58:46.976Z,99430.59
2023-03-27T13:00:44.863Z,99452.53
2023-03-27T13:03:06.936Z,99442.97
2023-03-27T13:05:24.194Z,99450.09
2023-03-27T13:07:13.038Z,99454.13
2023-03-27T13:12:29.756Z,99457.31
2023-03-27T13:15:15.753Z,99445.03
2023-03-27T13:28:35.338Z,99486.41
2023-03-27T14:07:50.278Z,99490.47
2023-03-27T14:20:50.458Z,99495.81
2023-03-27T14:23:20.418Z,99501.09
2023-03-27T14:25:16.536Z,99494.34
2023-03-27T14:29:13.195Z,99499.63
2023-03-27T14:31:15.465Z,99515.38
2023-03-27T14:33:53.784Z,99508.78
2023-03-27T14:35:47.334Z,99515.66
2023-03-27T14:38:00.417Z,99518.06
2023-03-27T14:40:08.549Z,99541.19
2023-03-27T14:42:16.452Z,99526.94
2023-03-27T14:46:11.467Z,99524.69
2023-03-27T14:48:08.128Z,99529.63
2023-03-27T14:52:09.172Z,99525.25
2023-03-27T14:53:57.591Z,99535.72
2023-03-27T14:55:50.827Z,99546.44
2023-03-27T14:57:57.930Z,99545.50
2023-03-27T14:59:43.617Z,99552.72
2023-03-27T15:01:23.737Z,99560.41
2023-03-27T15:08:05.361Z,99558.75
2023-03-27T15:10:34.951Z,99569.41
2023-03-27T15:12:28.447Z,99568.56
2023-03-27T15:14:11.700Z,99569.22
2023-03-27T15:15:58.907Z,99575.13
2023-03-27T15:17:42.557Z,99581.53
2023-03-27T15:19:16.382Z,99581.59
2023-03-27T15:20:45.181Z,99584.94
2023-03-27T15:22:13.881Z,99588.16
2023-03-27T15:23:50.872Z,99590.28
2023-03-27T15:25:21.495Z,99600.56
2023-03-27T15:26:43.815Z,99594.25
2023-03-27T15:28:11.712Z,99614.22
2023-03-27T15:29:44.948Z,99597.56
2023-03-27T15:31:14.286Z,99609.00
2023-03-27T15:32:42.737Z,99612.94
2023-03-27T15:34:09.583Z,99611.84
2023-03-27T15:35:36.908Z,99621.88
2023-03-27T15:37:04.775Z,99624.25
2023-03-27T15:38:42.538Z,99623.97
2023-03-27T15:40:36.916Z,99615.06
2023-03-27T15:42:06.733Z,99625.25
2023-03-27T15:43:32.691Z,99622.47
2023-03-27T15:45:06.135Z,99627.66
2023-03-27T15:46:39.084Z,99631.84
2023-03-27T15:48:04.233Z,99644.75
2023-03-27T15:49:40.820Z,99650.28
2023-03-27T15:51:09.310Z,99620.88
2023-03-27T15:52:51.090Z,99650.00
2023-03-27T15:54:54.262Z,99642.66
2023-03-27T15:56:24.842Z,99649.19
2023-03-27T15:57:50.334Z,99650.03
2023-03-27T15:59:16.568Z,99656.34
2023-03-27T16:00:49.036Z,99657.38
2023-03-27T16:02:20.712Z,99652.19
2023-03-27T16:03:45.627Z,99649.50
2023-03-27T16:05:08.671Z,99663.19
2023-03-27T16:06:37.759Z,99663.72
2023-03-27T16:08:02.705Z,99673.06
2023-03-27T16:09:37.337Z,99675.41
2023-03-27T16:11:10.519Z,99664.53
2023-03-27T16:12:36.502Z,99667.19
2023-03-27T16:14:14.030Z,99662.19
2023-03-27T16:15:56.172Z,99668.03
2023-03-27T16:17:35.731Z,99670.69
2023-03-27T16:19:01.258Z,99674.88
2023-03-27T16:20:37.564Z,99679.69
2023-03-27T16:22:00.614Z,99681.53
2023-03-27T16:23:25.015Z,99688.03
2023-03-27T16:24:46.801Z,99677.50
2023-03-27T16:26:15.671Z,99686.53
2023-03-27T16:27:40.813Z,99688.03
2023-03-27T16:29:29.516Z,99675.97
2023-03-27T16:31:15.326Z,99680.47
2023-03-27T16:32:48.504Z,99701.38
2023-03-27T16:34:22.346Z,99691.13
2023-03-27T16:35:50.787Z,99695.97
2023-03-27T16:37:17.214Z,99717.69
2023-03-27T16:38:40.907Z,99709.31
2023-03-27T16:40:10.581Z,99711.66
2023-03-27T16:41:39.423Z,99706.44
2023-03-27T16:43:21.278Z,99690.22
2023-03-27T16:44:48.759Z,99711.09
2023-03-27T16:46:18.543Z,99708.94
2023-03-27T16:47:53.699Z,99698.03
2023-03-27T16:49:19.566Z,99718.75
2023-03-27T16:50:42.505Z,99708.34
2023-03-27T16:52:05.130Z,99712.00
2023-03-27T16:53:30.668Z,99733.44
2023-03-27T16:54:53.479Z,99715.47
2023-03-27T16:56:20.911Z,99728.53
2023-03-27T16:57:43.959Z,99729.19
2023-03-27T16:59:09.137Z,99734.53
2023-03-27T17:00:34.373Z,99742.03
2023-03-27T17:01:57.129Z,99744.19
2023-03-27T17:03:31.544Z,99747.00
2023-03-27T17:05:05.289Z,99733.75
2023-03-27T17:06:40.206Z,99748.28
2023-03-27T17:08:13.408Z,99749.44
2023-03-27T17:09:54.490Z,99752.91
2023-03-27T17:12:36.865Z,99739.38
2023-03-27T17:17:27.618Z,99747.22
2023-03-27T17:19:17.628Z,99750.22
2023-03-27T17:20:44.446Z,99772.91
2023-03-27T17:22:09.649Z,99766.06
2023-03-27T17:23:33.142Z,99773.91
2023-03-27T17:24:57.273Z,99768.53
2023-03-27T17:26:24.234Z,99775.19
2023-03-27T17:27:49.322Z,99777.03
2023-03-27T17:29:11.801Z,99783.38
2023-03-27T17:30:39.734Z,99775.13
2023-03-27T17:32:08.977Z,99774.72
2023-03-27T17:33:34.941Z,99785.53
2023-03-27T17:34:58.845Z,99796.47
2023-03-27T17:36:39.723Z,99798.44
2023-03-27T17:38:08.685Z,99795.69
2023-03-27T17:39:31.497Z,99793.41
2023-03-27T17:40:53.796Z,99794.00
2023-03-27T17:42:15.932Z,99801.84
2023-03-27T17:43:38.481Z,99804.66
2023-03-27T17:45:03.698Z,99803.00
2023-03-27T17:46:26.312Z,99805.66
2023-03-27T17:47:48.769Z,99799.94
2023-03-27T17:49:11.252Z,99799.94
2023-03-27T17:50:36.217Z,99805.13
2023-03-27T17:52:00.936Z,99805.28
2023-03-27T17:53:23.349Z,99803.63
2023-03-27T17:54:48.286Z,99821.41
2023-03-27T17:56:11.160Z,99816.41
2023-03-27T17:57:34.482Z,99814.72
2023-03-27T17:58:58.598Z,99820.06
2023-03-27T18:00:23.594Z,99819.19
2023-03-27T18:01:48.575Z,99816.84
2023-03-27T18:03:13.594Z,99813.78
2023-03-27T18:04:38.993Z,99811.28
2023-03-27T18:06:06.895Z,99823.94
2023-03-27T18:07:38.480Z,99820.13
2023-03-27T18:09:02.446Z,99826.16
2023-03-27T18:10:24.565Z,99823.75
2023-03-27T18:11:46.198Z,99830.22
2023-03-27T18:13:07.550Z,99827.75
2023-03-27T18:14:30.090Z,99838.41
2023-03-27T18:15:57.013Z,99842.03
2023-03-27T18:17:21.344Z,99837.00
2023-03-27T18:18:54.932Z,99836.47
2023-03-27T18:20:18.653Z,99839.97
2023-03-27T18:22:01.965Z,99838.97
2023-03-27T18:23:25.534Z,99848.13
2023-03-27T18:24:47.824Z,99851.78
2023-03-27T18:26:12.160Z,99841.56
2023-03-27T18:27:33.563Z,99859.78
2023-03-27T18:28:55.608Z,99854.59
2023-03-27T18:30:19.021Z,99851.91
2023-03-27T18:31:45.889Z,99858.25
2023-03-27T18:33:08.951Z,99852.22
2023-03-27T18:34:39.694Z,99846.88
2023-03-27T18:36:08.824Z,99848.16
2023-03-27T18:37:35.644Z,99844.81
2023-03-27T18:39:04.474Z,99860.34
2023-03-27T18:40:35.971Z,99843.75
2023-03-27T18:42:01.737Z,99859.69
2023-03-27T18:43:24.814Z,99852.13
2023-03-27T18:44:48.230Z,99857.28
2023-03-27T18:46:17.172Z,99851.81
2023-03-27T18:47:40.494Z,99856.59
2023-03-27T18:49:13.636Z,99859.13
2023-03-27T18:50:49.438Z,99868.25
2023-03-27T18:52:12.832Z,99857.72
2023-03-27T18:53:36.791Z,99857.91
2023-03-27T18:55:04.077Z,99854.66
2023-03-27T18:56:26.785Z,99853.53
2023-03-27T18:57:48.956Z,99859.72
2023-03-27T18:59:11.271Z,99856.19
2023-03-27T19:00:49.274Z,99853.69
2023-03-27T19:02:11.726Z,99845.31
2023-03-27T19:03:35.518Z,99858.19
2023-03-27T19:05:01.648Z,99853.84
2023-03-27T19:06:26.736Z,99861.81
2023-03-27T19:16:02.283Z,99851.53
2023-03-27T19:30:46.367Z,99855.97
2023-03-27T20:10:59.452Z,99881.50
2023-03-27T20:12:27.740Z,99889.19
2023-03-27T20:17:07.886Z,99898.31
2023-03-27T20:18:59.161Z,99891.88
2023-03-27T20:23:37.859Z,99894.53
2023-03-27T20:25:00.910Z,99908.13
2023-03-27T20:26:35.547Z,99894.28
2023-03-27T20:28:11.956Z,99886.84
2023-03-27T20:29:45.917Z,99894.41
2023-03-27T20:31:31.063Z,99901.13
2023-03-27T20:32:54.011Z,99902.09
2023-03-27T20:34:20.181Z,99900.44
2023-03-27T20:35:53.319Z,99881.66
2023-03-27T20:37:19.893Z,99878.00
2023-03-27T20:38:59.430Z,99896.22
2023-03-27T20:40:28.368Z,99885.72
2023-03-27T20:42:07.426Z,99876.34
2023-03-27T20:43:37.700Z,99891.72
2023-03-27T20:45:00.187Z,99879.44
2023-03-27T20:46:39.824Z,99876.91
2023-03-27T20:48:24.472Z,99874.94
2023-03-27T20:50:08.424Z,99886.41
2023-03-27T20:51:40.468Z,99874.38
2023-03-27T20:53:20.006Z,99883.06
2023-03-27T20:54:55.752Z,99879.56
2023-03-27T20:57:24.309Z,99863.03
2023-03-27T20:59:17.470Z,99873.94
2023-03-27T21:00:50.292Z,99859.97
2023-03-27T21:02:19.960Z,99863.47
2023-03-27T21:03:46.569Z,99873.25
2023-03-27T21:05:16.388Z,99879.00
2023-03-27T21:06:52.446Z,99875.94
2023-03-27T21:08:43.509Z,99874.63
2023-03-27T21:10:34.934Z,99877.59
2023-03-27T21:12:03.752Z,99887.41
2023-03-27T21:13:35.625Z,99884.88
2023-03-27T21:15:11.103Z,99879.13
2023-03-27T21:17:15.557Z,99863.16
2023-03-27T21:18:44.216Z,99875.75
2023-03-27T21:20:26.857Z,99867.34
2023-03-27T21:24:26.372Z,99883.03
2023-03-27T21:26:41.921Z,99863.03
2023-03-27T21:28:18.203Z,99877.16
2023-03-27T21:30:11.615Z,99880.94
2023-03-27T21:31:38.520Z,99861.34
2023-03-27T21:33:59.863Z,99860.66
2023-03-27T21:36:10.706Z,99869.44
2023-03-27T21:37:34.009Z,99885.69
2023-03-27T21:38:58.417Z,99881.22
2023-03-27T21:40:35.218Z,99872.66
2023-03-27T21:42:23.785Z,99863.31
2023-03-27T21:44:16.636Z,99864.41
2023-03-27T21:45:43.577Z,99869.03
2023-03-27T21:47:37.304Z,99868.03
2023-03-27T21:49:14.416Z,99860.75
2023-03-27T21:50:37.354Z,99860.91
2023-03-27T21:52:12.068Z,99882.31
2023-03-27T21:54:14.253Z,99857.38
2023-03-27T21:55:41.574Z,99866.91
2023-03-27T21:57:07.487Z,99871.97
2023-03-27T21:58:37.242Z,99873.75